sensor_id;sensor_type;location;lat;lon;timestamp;P1;durP1;ratioP1;P2;durP2;ratioP2
3155;SDS011;1588;50.892;7.082;2023-09-18T00:04:42;13.57;;;5.50;;
3155;SDS011;1588;50.892;7.082;2023-09-18T00:09:46;11.63;;;6.13;;
3155;SDS011;1588;50.892;7.082;2023-09-18T00:14:50;12.07;;;6.83;;
3155;SDS011;1588;50.892;7.082;2023-09-18T00:19:52;14.43;;;5.60;;
3155;SDS011;1588;50.892;7.082;2023-09-18T00:24:56;8.37;;;5.33;;
3155;SDS011;1588;50.892;7.082;2023-09-18T00:29:59;9.43;;;6.00;;
3155;SDS011;1588;50.892;7.082;2023-09-18T00:35:01;18.10;;;6.07;;
3155;SDS011;1588;50.892;7.082;2023-09-18T00:40:07;8.33;;;5.77;;
3155;SDS011;1588;50.892;7.082;2023-09-18T00:45:09;14.10;;;6.27;;
3155;SDS011;1588;50.892;7.082;2023-09-18T00:50:12;10.33;;;6.10;;
3155;SDS011;1588;50.892;7.082;2023-09-18T00:55:17;9.40;;;6.10;;
3155;SDS011;1588;50.892;7.082;2023-09-18T01:00:20;14.90;;;6.73;;
3155;SDS011;1588;50.892;7.082;2023-09-18T01:05:23;16.00;;;6.37;;
3155;SDS011;1588;50.892;7.082;2023-09-18T01:10:28;9.87;;;6.17;;
3155;SDS011;1588;50.892;7.082;2023-09-18T01:15:43;14.63;;;6.27;;
3155;SDS011;1588;50.892;7.082;2023-09-18T01:20:50;11.87;;;6.50;;
3155;SDS011;1588;50.892;7.082;2023-09-18T01:25:54;12.07;;;6.63;;
3155;SDS011;1588;50.892;7.082;2023-09-18T01:30:56;15.43;;;5.97;;
3155;SDS011;1588;50.892;7.082;2023-09-18T01:36:01;21.43;;;6.17;;
3155;SDS011;1588;50.892;7.082;2023-09-18T01:41:14;12.43;;;6.10;;
3155;SDS011;1588;50.892;7.082;2023-09-18T01:46:17;8.00;;;5.53;;
3155;SDS011;1588;50.892;7.082;2023-09-18T01:51:20;14.70;;;5.73;;
3155;SDS011;1588;50.892;7.082;2023-09-18T01:56:24;11.57;;;5.40;;
3155;SDS011;1588;50.892;7.082;2023-09-18T02:01:27;11.73;;;5.97;;
3155;SDS011;1588;50.892;7.082;2023-09-18T02:06:30;13.63;;;4.80;;
3155;SDS011;1588;50.892;7.082;2023-09-18T02:11:34;11.50;;;5.97;;
3155;SDS011;1588;50.892;7.082;2023-09-18T02:16:38;11.37;;;5.40;;
3155;SDS011;1588;50.892;7.082;2023-09-18T02:21:43;21.03;;;5.57;;
3155;SDS011;1588;50.892;7.082;2023-09-18T02:26:46;16.53;;;5.10;;
3155;SDS011;1588;50.892;7.082;2023-09-18T02:31:49;21.83;;;5.33;;
3155;SDS011;1588;50.892;7.082;2023-09-18T02:36:51;22.13;;;7.37;;
3155;SDS011;1588;50.892;7.082;2023-09-18T02:41:55;12.60;;;5.30;;
3155;SDS011;1588;50.892;7.082;2023-09-18T02:46:58;10.17;;;4.90;;
3155;SDS011;1588;50.892;7.082;2023-09-18T02:52:00;11.10;;;5.50;;
3155;SDS011;1588;50.892;7.082;2023-09-18T02:57:05;13.90;;;4.90;;
3155;SDS011;1588;50.892;7.082;2023-09-18T03:02:07;10.70;;;5.00;;
3155;SDS011;1588;50.892;7.082;2023-09-18T03:07:12;11.83;;;5.13;;
3155;SDS011;1588;50.892;7.082;2023-09-18T03:12:15;12.77;;;5.40;;
3155;SDS011;1588;50.892;7.082;2023-09-18T03:17:18;12.63;;;5.47;;
3155;SDS011;1588;50.892;7.082;2023-09-18T03:22:21;7.83;;;5.40;;
3155;SDS011;1588;50.892;7.082;2023-09-18T03:27:24;11.00;;;5.43;;
3155;SDS011;1588;50.892;7.082;2023-09-18T03:32:31;11.00;;;4.97;;
3155;SDS011;1588;50.892;7.082;2023-09-18T03:37:34;11.10;;;5.80;;
3155;SDS011;1588;50.892;7.082;2023-09-18T03:42:41;10.90;;;4.93;;
3155;SDS011;1588;50.892;7.082;2023-09-18T03:47:46;12.23;;;5.23;;
3155;SDS011;1588;50.892;7.082;2023-09-18T03:52:52;8.90;;;5.07;;
3155;SDS011;1588;50.892;7.082;2023-09-18T03:57:56;14.53;;;5.70;;
3155;SDS011;1588;50.892;7.082;2023-09-18T04:03:00;16.47;;;5.30;;
3155;SDS011;1588;50.892;7.082;2023-09-18T04:08:04;20.70;;;5.30;;
3155;SDS011;1588;50.892;7.082;2023-09-18T04:13:10;19.17;;;6.27;;
3155;SDS011;1588;50.892;7.082;2023-09-18T04:18:13;12.97;;;5.00;;
3155;SDS011;1588;50.892;7.082;2023-09-18T04:23:20;12.70;;;4.80;;
3155;SDS011;1588;50.892;7.082;2023-09-18T04:28:28;9.43;;;4.73;;
3155;SDS011;1588;50.892;7.082;2023-09-18T04:33:32;9.60;;;4.90;;
3155;SDS011;1588;50.892;7.082;2023-09-18T04:38:34;13.43;;;4.37;;
3155;SDS011;1588;50.892;7.082;2023-09-18T04:43:40;15.63;;;5.33;;
3155;SDS011;1588;50.892;7.082;2023-09-18T04:48:44;8.40;;;4.73;;
3155;SDS011;1588;50.892;7.082;2023-09-18T04:53:47;14.03;;;3.63;;
3155;SDS011;1588;50.892;7.082;2023-09-18T04:58:54;7.90;;;3.80;;
3155;SDS011;1588;50.892;7.082;2023-09-18T05:03:58;12.17;;;4.40;;
3155;SDS011;1588;50.892;7.082;2023-09-18T05:09:01;14.43;;;4.00;;
3155;SDS011;1588;50.892;7.082;2023-09-18T05:14:07;18.97;;;4.30;;
3155;SDS011;1588;50.892;7.082;2023-09-18T05:19:10;11.13;;;4.53;;
3155;SDS011;1588;50.892;7.082;2023-09-18T05:24:13;10.13;;;4.10;;
3155;SDS011;1588;50.892;7.082;2023-09-18T05:29:17;7.97;;;4.37;;
3155;SDS011;1588;50.892;7.082;2023-09-18T05:34:20;13.03;;;3.60;;
3155;SDS011;1588;50.892;7.082;2023-09-18T05:39:22;7.07;;;3.40;;
3155;SDS011;1588;50.892;7.082;2023-09-18T05:44:27;12.23;;;3.83;;
3155;SDS011;1588;50.892;7.082;2023-09-18T05:49:32;8.10;;;3.53;;
3155;SDS011;1588;50.892;7.082;2023-09-18T05:54:37;13.33;;;3.63;;
3155;SDS011;1588;50.892;7.082;2023-09-18T05:59:42;15.53;;;3.40;;
3155;SDS011;1588;50.892;7.082;2023-09-18T06:04:46;12.27;;;3.33;;
3155;SDS011;1588;50.892;7.082;2023-09-18T06:09:55;13.67;;;3.10;;
3155;SDS011;1588;50.892;7.082;2023-09-18T06:15:07;10.87;;;2.80;;
3155;SDS011;1588;50.892;7.082;2023-09-18T06:20:29;6.03;;;3.50;;
3155;SDS011;1588;50.892;7.082;2023-09-18T06:25:47;15.37;;;3.20;;
3155;SDS011;1588;50.892;7.082;2023-09-18T06:31:09;14.20;;;3.03;;
3155;SDS011;1588;50.892;7.082;2023-09-18T06:36:15;4.83;;;2.70;;
3155;SDS011;1588;50.892;7.082;2023-09-18T06:41:20;10.80;;;3.57;;
3155;SDS011;1588;50.892;7.082;2023-09-18T06:46:24;18.57;;;3.07;;
3155;SDS011;1588;50.892;7.082;2023-09-18T06:51:26;6.50;;;2.30;;
3155;SDS011;1588;50.892;7.082;2023-09-18T06:56:29;4.77;;;2.50;;
3155;SDS011;1588;50.892;7.082;2023-09-18T07:01:33;6.57;;;1.90;;
3155;SDS011;1588;50.892;7.082;2023-09-18T07:06:36;4.90;;;2.07;;
3155;SDS011;1588;50.892;7.082;2023-09-18T07:11:39;7.90;;;1.93;;
3155;SDS011;1588;50.892;7.082;2023-09-18T07:16:44;13.70;;;2.30;;
3155;SDS011;1588;50.892;7.082;2023-09-18T07:21:47;3.23;;;2.13;;
3155;SDS011;1588;50.892;7.082;2023-09-18T07:26:52;5.60;;;2.30;;
3155;SDS011;1588;50.892;7.082;2023-09-18T07:32:03;5.00;;;1.93;;
3155;SDS011;1588;50.892;7.082;2023-09-18T07:37:08;6.00;;;2.07;;
3155;SDS011;1588;50.892;7.082;2023-09-18T07:42:10;3.93;;;1.80;;
3155;SDS011;1588;50.892;7.082;2023-09-18T07:47:14;2.87;;;1.77;;
3155;SDS011;1588;50.892;7.082;2023-09-18T07:52:32;5.77;;;1.70;;
3155;SDS011;1588;50.892;7.082;2023-09-18T07:57:34;3.47;;;1.50;;
3155;SDS011;1588;50.892;7.082;2023-09-18T08:02:39;2.97;;;1.70;;
3155;SDS011;1588;50.892;7.082;2023-09-18T08:07:42;4.70;;;1.73;;
3155;SDS011;1588;50.892;7.082;2023-09-18T08:12:45;8.83;;;2.17;;
3155;SDS011;1588;50.892;7.082;2023-09-18T08:17:53;7.20;;;1.80;;
3155;SDS011;1588;50.892;7.082;2023-09-18T08:22:57;5.50;;;2.10;;
3155;SDS011;1588;50.892;7.082;2023-09-18T08:28:02;5.13;;;1.63;;
3155;SDS011;1588;50.892;7.082;2023-09-18T08:33:08;5.50;;;1.67;;
3155;SDS011;1588;50.892;7.082;2023-09-18T08:38:12;3.23;;;1.73;;
3155;SDS011;1588;50.892;7.082;2023-09-18T08:43:16;2.90;;;1.60;;
3155;SDS011;1588;50.892;7.082;2023-09-18T08:48:21;4.67;;;1.40;;
3155;SDS011;1588;50.892;7.082;2023-09-18T08:53:25;3.77;;;1.67;;
3155;SDS011;1588;50.892;7.082;2023-09-18T08:58:32;6.50;;;1.97;;
3155;SDS011;1588;50.892;7.082;2023-09-18T09:03:46;3.53;;;1.60;;
3155;SDS011;1588;50.892;7.082;2023-09-18T09:08:50;2.80;;;1.43;;
3155;SDS011;1588;50.892;7.082;2023-09-18T09:14:08;5.23;;;2.07;;
3155;SDS011;1588;50.892;7.082;2023-09-18T09:19:18;7.63;;;3.50;;
3155;SDS011;1588;50.892;7.082;2023-09-18T09:24:37;4.50;;;1.73;;
3155;SDS011;1588;50.892;7.082;2023-09-18T09:29:43;3.63;;;1.50;;
3155;SDS011;1588;50.892;7.082;2023-09-18T09:34:52;5.30;;;1.50;;
3155;SDS011;1588;50.892;7.082;2023-09-18T09:40:03;2.40;;;1.60;;
3155;SDS011;1588;50.892;7.082;2023-09-18T09:45:11;2.27;;;1.50;;
3155;SDS011;1588;50.892;7.082;2023-09-18T09:50:25;4.03;;;1.60;;
3155;SDS011;1588;50.892;7.082;2023-09-18T09:55:42;2.80;;;1.33;;
3155;SDS011;1588;50.892;7.082;2023-09-18T10:00:49;5.40;;;1.73;;
3155;SDS011;1588;50.892;7.082;2023-09-18T10:06:30;10.83;;;1.70;;
3155;SDS011;1588;50.892;7.082;2023-09-18T10:11:40;1.57;;;1.40;;
3155;SDS011;1588;50.892;7.082;2023-09-18T10:16:48;4.30;;;1.70;;
3155;SDS011;1588;50.892;7.082;2023-09-18T10:21:59;2.27;;;1.00;;
3155;SDS011;1588;50.892;7.082;2023-09-18T10:27:14;2.80;;;1.53;;
3155;SDS011;1588;50.892;7.082;2023-09-18T10:32:30;3.17;;;1.37;;
3155;SDS011;1588;50.892;7.082;2023-09-18T10:37:37;3.93;;;1.10;;
3155;SDS011;1588;50.892;7.082;2023-09-18T10:42:40;2.23;;;1.07;;
3155;SDS011;1588;50.892;7.082;2023-09-18T10:47:49;5.33;;;1.33;;
3155;SDS011;1588;50.892;7.082;2023-09-18T10:52:56;4.60;;;1.23;;
3155;SDS011;1588;50.892;7.082;2023-09-18T10:58:00;2.23;;;1.10;;
3155;SDS011;1588;50.892;7.082;2023-09-18T11:03:21;4.00;;;1.37;;
3155;SDS011;1588;50.892;7.082;2023-09-18T11:08:32;4.10;;;1.30;;
3155;SDS011;1588;50.892;7.082;2023-09-18T11:13:39;2.63;;;1.30;;
3155;SDS011;1588;50.892;7.082;2023-09-18T11:18:51;1.47;;;1.10;;
3155;SDS011;1588;50.892;7.082;2023-09-18T11:24:01;2.20;;;1.23;;
3155;SDS011;1588;50.892;7.082;2023-09-18T11:29:12;3.07;;;1.00;;
3155;SDS011;1588;50.892;7.082;2023-09-18T11:34:20;28.17;;;1.37;;
3155;SDS011;1588;50.892;7.082;2023-09-18T11:39:37;2.20;;;1.20;;
3155;SDS011;1588;50.892;7.082;2023-09-18T11:44:53;4.77;;;2.70;;
3155;SDS011;1588;50.892;7.082;2023-09-18T11:50:38;1.40;;;1.30;;
3155;SDS011;1588;50.892;7.082;2023-09-18T11:55:45;1.50;;;1.20;;
3155;SDS011;1588;50.892;7.082;2023-09-18T12:00:49;2.43;;;1.40;;
3155;SDS011;1588;50.892;7.082;2023-09-18T12:05:53;1.20;;;1.10;;
3155;SDS011;1588;50.892;7.082;2023-09-18T12:11:05;2.70;;;1.63;;
3155;SDS011;1588;50.892;7.082;2023-09-18T12:16:09;1.87;;;1.20;;
3155;SDS011;1588;50.892;7.082;2023-09-18T12:21:24;1.80;;;1.20;;
3155;SDS011;1588;50.892;7.082;2023-09-18T12:26:29;1.60;;;1.40;;
3155;SDS011;1588;50.892;7.082;2023-09-18T12:31:35;3.93;;;1.20;;
3155;SDS011;1588;50.892;7.082;2023-09-18T12:36:37;2.87;;;1.47;;
3155;SDS011;1588;50.892;7.082;2023-09-18T12:41:47;20.17;;;1.80;;
3155;SDS011;1588;50.892;7.082;2023-09-18T12:46:50;4.53;;;1.83;;
3155;SDS011;1588;50.892;7.082;2023-09-18T12:51:56;20.17;;;1.80;;
3155;SDS011;1588;50.892;7.082;2023-09-18T12:57:01;1.60;;;1.20;;
3155;SDS011;1588;50.892;7.082;2023-09-18T13:02:13;5.13;;;1.50;;
3155;SDS011;1588;50.892;7.082;2023-09-18T13:07:24;7.83;;;1.10;;
3155;SDS011;1588;50.892;7.082;2023-09-18T13:12:40;2.00;;;1.33;;
3155;SDS011;1588;50.892;7.082;2023-09-18T13:17:45;5.13;;;2.00;;
3155;SDS011;1588;50.892;7.082;2023-09-18T13:22:57;5.73;;;1.57;;
3155;SDS011;1588;50.892;7.082;2023-09-18T13:28:03;2.20;;;1.53;;
3155;SDS011;1588;50.892;7.082;2023-09-18T13:33:08;12.43;;;1.47;;
3155;SDS011;1588;50.892;7.082;2023-09-18T13:38:11;3.63;;;1.50;;
3155;SDS011;1588;50.892;7.082;2023-09-18T13:43:16;4.80;;;1.40;;
3155;SDS011;1588;50.892;7.082;2023-09-18T13:48:22;3.23;;;1.57;;
3155;SDS011;1588;50.892;7.082;2023-09-18T13:53:47;5.03;;;1.33;;
3155;SDS011;1588;50.892;7.082;2023-09-18T13:58:51;1.77;;;1.47;;
3155;SDS011;1588;50.892;7.082;2023-09-18T14:03:54;6.83;;;1.40;;
3155;SDS011;1588;50.892;7.082;2023-09-18T14:09:01;7.20;;;1.40;;
3155;SDS011;1588;50.892;7.082;2023-09-18T14:14:42;4.90;;;1.67;;
3155;SDS011;1588;50.892;7.082;2023-09-18T14:20:17;3.10;;;1.30;;
3155;SDS011;1588;50.892;7.082;2023-09-18T14:25:20;2.50;;;1.60;;
3155;SDS011;1588;50.892;7.082;2023-09-18T14:30:40;1.90;;;1.60;;
3155;SDS011;1588;50.892;7.082;2023-09-18T14:36:34;5.37;;;1.27;;
3155;SDS011;1588;50.892;7.082;2023-09-18T14:41:39;3.83;;;1.43;;
3155;SDS011;1588;50.892;7.082;2023-09-18T14:46:44;3.17;;;1.50;;
3155;SDS011;1588;50.892;7.082;2023-09-18T14:51:47;2.00;;;1.33;;
3155;SDS011;1588;50.892;7.082;2023-09-18T14:57:10;1.50;;;1.27;;
3155;SDS011;1588;50.892;7.082;2023-09-18T15:02:14;3.23;;;1.43;;
3155;SDS011;1588;50.892;7.082;2023-09-18T15:07:34;3.07;;;1.13;;
3155;SDS011;1588;50.892;7.082;2023-09-18T15:12:42;1.60;;;1.40;;
3155;SDS011;1588;50.892;7.082;2023-09-18T15:17:46;3.43;;;1.47;;
3155;SDS011;1588;50.892;7.082;2023-09-18T15:22:53;9.77;;;1.50;;
3155;SDS011;1588;50.892;7.082;2023-09-18T15:27:56;1.50;;;1.40;;
3155;SDS011;1588;50.892;7.082;2023-09-18T15:33:01;3.03;;;1.40;;
3155;SDS011;1588;50.892;7.082;2023-09-18T15:38:04;2.70;;;1.40;;
3155;SDS011;1588;50.892;7.082;2023-09-18T15:43:07;1.83;;;1.20;;
3155;SDS011;1588;50.892;7.082;2023-09-18T15:48:14;1.90;;;1.40;;
3155;SDS011;1588;50.892;7.082;2023-09-18T15:53:18;3.20;;;1.57;;
3155;SDS011;1588;50.892;7.082;2023-09-18T15:58:20;2.90;;;1.57;;
3155;SDS011;1588;50.892;7.082;2023-09-18T16:03:31;3.57;;;1.93;;
3155;SDS011;1588;50.892;7.082;2023-09-18T16:08:34;2.07;;;1.60;;
3155;SDS011;1588;50.892;7.082;2023-09-18T16:13:38;3.43;;;1.50;;
3155;SDS011;1588;50.892;7.082;2023-09-18T16:18:42;2.50;;;1.60;;
3155;SDS011;1588;50.892;7.082;2023-09-18T16:23:45;3.47;;;1.20;;
3155;SDS011;1588;50.892;7.082;2023-09-18T16:28:51;3.80;;;1.70;;
3155;SDS011;1588;50.892;7.082;2023-09-18T16:33:57;6.33;;;2.07;;
3155;SDS011;1588;50.892;7.082;2023-09-18T16:39:04;6.90;;;1.50;;
3155;SDS011;1588;50.892;7.082;2023-09-18T16:44:07;1.50;;;1.40;;
3155;SDS011;1588;50.892;7.082;2023-09-18T16:49:13;2.17;;;1.20;;
3155;SDS011;1588;50.892;7.082;2023-09-18T16:54:40;1.60;;;1.50;;
3155;SDS011;1588;50.892;7.082;2023-09-18T16:59:44;7.33;;;2.57;;
3155;SDS011;1588;50.892;7.082;2023-09-18T17:04:56;2.93;;;1.80;;
3155;SDS011;1588;50.892;7.082;2023-09-18T17:10:06;6.47;;;2.23;;
3155;SDS011;1588;50.892;7.082;2023-09-18T17:15:31;4.33;;;1.70;;
3155;SDS011;1588;50.892;7.082;2023-09-18T17:20:38;4.53;;;1.90;;
3155;SDS011;1588;50.892;7.082;2023-09-18T17:25:52;3.13;;;1.67;;
3155;SDS011;1588;50.892;7.082;2023-09-18T17:31:03;1.43;;;1.33;;
3155;SDS011;1588;50.892;7.082;2023-09-18T17:37:12;7.57;;;1.67;;
3155;SDS011;1588;50.892;7.082;2023-09-18T17:42:20;2.10;;;1.33;;
3155;SDS011;1588;50.892;7.082;2023-09-18T17:47:27;2.00;;;1.80;;
3155;SDS011;1588;50.892;7.082;2023-09-18T17:52:49;4.70;;;2.10;;
3155;SDS011;1588;50.892;7.082;2023-09-18T17:58:05;5.60;;;1.97;;
3155;SDS011;1588;50.892;7.082;2023-09-18T18:03:13;3.40;;;1.80;;
3155;SDS011;1588;50.892;7.082;2023-09-18T18:08:23;3.60;;;1.67;;
3155;SDS011;1588;50.892;7.082;2023-09-18T18:13:26;2.50;;;1.73;;
3155;SDS011;1588;50.892;7.082;2023-09-18T18:18:32;2.60;;;1.60;;
3155;SDS011;1588;50.892;7.082;2023-09-18T18:23:41;3.80;;;2.00;;
3155;SDS011;1588;50.892;7.082;2023-09-18T18:28:46;1.20;;;0.90;;
3155;SDS011;1588;50.892;7.082;2023-09-18T18:33:50;9.07;;;1.73;;
3155;SDS011;1588;50.892;7.082;2023-09-18T18:44:19;1.93;;;0.90;;
3155;SDS011;1588;50.892;7.082;2023-09-18T18:49:24;4.20;;;0.87;;
3155;SDS011;1588;50.892;7.082;2023-09-18T18:54:29;4.83;;;1.00;;
3155;SDS011;1588;50.892;7.082;2023-09-18T18:59:42;1.43;;;1.00;;
3155;SDS011;1588;50.892;7.082;2023-09-18T19:04:51;2.97;;;1.03;;
3155;SDS011;1588;50.892;7.082;2023-09-18T19:10:29;10.87;;;1.73;;
3155;SDS011;1588;50.892;7.082;2023-09-18T19:16:06;4.50;;;1.70;;
3155;SDS011;1588;50.892;7.082;2023-09-18T19:21:26;4.37;;;1.57;;
3155;SDS011;1588;50.892;7.082;2023-09-18T19:26:49;14.67;;;1.90;;
3155;SDS011;1588;50.892;7.082;2023-09-18T19:31:59;6.23;;;1.70;;
3155;SDS011;1588;50.892;7.082;2023-09-18T19:37:08;4.20;;;1.47;;
3155;SDS011;1588;50.892;7.082;2023-09-18T19:48:07;5.20;;;2.03;;
3155;SDS011;1588;50.892;7.082;2023-09-18T19:53:09;4.77;;;1.90;;
3155;SDS011;1588;50.892;7.082;2023-09-18T19:58:23;11.40;;;2.00;;
3155;SDS011;1588;50.892;7.082;2023-09-18T20:03:38;11.50;;;1.70;;
3155;SDS011;1588;50.892;7.082;2023-09-18T20:08:46;4.83;;;1.70;;
3155;SDS011;1588;50.892;7.082;2023-09-18T20:13:55;4.00;;;2.07;;
3155;SDS011;1588;50.892;7.082;2023-09-18T20:19:07;2.87;;;1.80;;
3155;SDS011;1588;50.892;7.082;2023-09-18T20:24:15;1.47;;;1.37;;
3155;SDS011;1588;50.892;7.082;2023-09-18T20:29:35;10.03;;;1.77;;
3155;SDS011;1588;50.892;7.082;2023-09-18T20:35:37;3.87;;;1.63;;
3155;SDS011;1588;50.892;7.082;2023-09-18T20:40:41;3.77;;;1.30;;
3155;SDS011;1588;50.892;7.082;2023-09-18T20:45:50;1.77;;;1.53;;
3155;SDS011;1588;50.892;7.082;2023-09-18T20:50:53;4.93;;;1.80;;
3155;SDS011;1588;50.892;7.082;2023-09-18T20:55:56;3.30;;;2.00;;
3155;SDS011;1588;50.892;7.082;2023-09-18T21:01:08;3.20;;;1.60;;
3155;SDS011;1588;50.892;7.082;2023-09-18T21:06:13;5.00;;;1.53;;
3155;SDS011;1588;50.892;7.082;2023-09-18T21:11:16;2.50;;;1.47;;
3155;SDS011;1588;50.892;7.082;2023-09-18T21:16:23;5.20;;;1.97;;
3155;SDS011;1588;50.892;7.082;2023-09-18T21:21:32;2.30;;;1.60;;
3155;SDS011;1588;50.892;7.082;2023-09-18T21:26:48;3.43;;;1.90;;
3155;SDS011;1588;50.892;7.082;2023-09-18T21:31:54;3.20;;;1.50;;
3155;SDS011;1588;50.892;7.082;2023-09-18T21:36:58;6.60;;;1.60;;
3155;SDS011;1588;50.892;7.082;2023-09-18T21:42:00;2.10;;;1.60;;
3155;SDS011;1588;50.892;7.082;2023-09-18T21:47:05;3.97;;;1.73;;
3155;SDS011;1588;50.892;7.082;2023-09-18T21:52:11;3.70;;;1.73;;
3155;SDS011;1588;50.892;7.082;2023-09-18T21:57:15;1.97;;;1.80;;
3155;SDS011;1588;50.892;7.082;2023-09-18T22:02:21;8.43;;;2.00;;
3155;SDS011;1588;50.892;7.082;2023-09-18T22:07:27;2.70;;;1.70;;
3155;SDS011;1588;50.892;7.082;2023-09-18T22:12:36;4.33;;;2.27;;
3155;SDS011;1588;50.892;7.082;2023-09-18T22:17:42;4.17;;;2.43;;
3155;SDS011;1588;50.892;7.082;2023-09-18T22:22:45;2.33;;;1.83;;
3155;SDS011;1588;50.892;7.082;2023-09-18T22:27:49;3.27;;;1.80;;
3155;SDS011;1588;50.892;7.082;2023-09-18T22:32:55;4.83;;;2.20;;
3155;SDS011;1588;50.892;7.082;2023-09-18T22:38:00;6.50;;;2.23;;
3155;SDS011;1588;50.892;7.082;2023-09-18T22:54:41;12.30;;;2.33;;
3155;SDS011;1588;50.892;7.082;2023-09-18T22:59:49;3.87;;;2.17;;
3155;SDS011;1588;50.892;7.082;2023-09-18T23:04:52;4.40;;;2.00;;
3155;SDS011;1588;50.892;7.082;2023-09-18T23:09:59;3.17;;;1.40;;
3155;SDS011;1588;50.892;7.082;2023-09-18T23:15:05;5.30;;;2.30;;
3155;SDS011;1588;50.892;7.082;2023-09-18T23:20:21;4.83;;;1.93;;
3155;SDS011;1588;50.892;7.082;2023-09-18T23:25:27;7.37;;;2.37;;
3155;SDS011;1588;50.892;7.082;2023-09-18T23:30:34;2.00;;;1.80;;
3155;SDS011;1588;50.892;7.082;2023-09-18T23:35:43;2.90;;;2.00;;
3155;SDS011;1588;50.892;7.082;2023-09-18T23:40:53;7.73;;;1.93;;
3155;SDS011;1588;50.892;7.082;2023-09-18T23:46:07;12.60;;;2.13;;
3155;SDS011;1588;50.892;7.082;2023-09-18T23:51:15;7.37;;;2.10;;
3155;SDS011;1588;50.892;7.082;2023-09-18T23:56:22;5.17;;;1.60;;
